createdAt,value
2019-01-25T00:00:25.554Z,36.17
2019-01-25T00:02:53.990Z,35.03
2019-01-25T00:05:22.446Z,33.55
2019-01-25T00:07:50.929Z,33.63
2019-01-25T00:10:19.367Z,31.25
2019-01-25T00:12:47.776Z,32.58
2019-01-25T00:15:16.368Z,32.83
2019-01-25T00:17:44.783Z,36.20
2019-01-25T00:20:14.456Z,32.42
2019-01-25T00:22:42.945Z,32.00
2019-01-25T00:25:11.649Z,31.48
2019-01-25T00:27:40.081Z,30.85
2019-01-25T00:30:12.156Z,30.60
2019-01-25T00:32:40.853Z,30.55
2019-01-25T00:35:09.757Z,33.08
2019-01-25T00:37:38.255Z,30.15
2019-01-25T00:40:12.285Z,30.55
2019-01-25T00:42:40.718Z,27.22
2019-01-25T00:45:11.187Z,27.15
2019-01-25T00:47:39.690Z,27.32
2019-01-25T00:50:14.295Z,24.60
2019-01-25T00:52:42.776Z,27.05
2019-01-25T00:55:11.858Z,28.15
2019-01-25T00:57:41.260Z,25.55
2019-01-25T01:00:21.445Z,24.43
2019-01-25T01:02:50.115Z,23.40
2019-01-25T01:05:19.087Z,22.60
2019-01-25T01:07:47.840Z,25.55
2019-01-25T01:10:16.413Z,24.23
2019-01-25T01:12:44.847Z,21.50
2019-01-25T01:15:14.347Z,23.15
2019-01-25T01:17:42.761Z,24.50
2019-01-25T01:20:16.386Z,26.17
2019-01-25T01:22:44.952Z,24.40
2019-01-25T01:25:14.290Z,24.32
2019-01-25T01:27:42.953Z,25.95
2019-01-25T01:30:14.601Z,24.45
2019-01-25T01:32:43.024Z,24.25
2019-01-25T01:35:11.528Z,24.55
2019-01-25T01:37:40.034Z,25.80
2019-01-25T01:40:11.539Z,24.12
2019-01-25T01:42:39.953Z,22.80
2019-01-25T01:45:08.529Z,27.85
2019-01-25T01:47:37.203Z,25.45
2019-01-25T01:50:08.720Z,26.52
2019-01-25T01:52:37.216Z,24.35
2019-01-25T01:55:06.499Z,26.42
2019-01-25T01:57:35.003Z,28.20
2019-01-25T02:00:05.380Z,27.13
2019-01-25T02:02:33.805Z,27.48
2019-01-25T02:05:02.309Z,27.62
2019-01-25T02:07:30.757Z,26.90
2019-01-25T02:09:59.204Z,26.40
2019-01-25T02:12:27.622Z,28.85
2019-01-25T02:14:56.086Z,29.45
2019-01-25T02:17:24.550Z,24.52
2019-01-25T02:19:52.985Z,26.70
2019-01-25T02:22:21.468Z,28.07
2019-01-25T02:24:49.889Z,28.23
2019-01-25T02:27:18.324Z,29.02
2019-01-25T02:29:46.746Z,27.85
2019-01-25T02:32:15.263Z,30.68
2019-01-25T02:34:43.687Z,32.78
2019-01-25T02:37:12.145Z,33.60
2019-01-25T02:39:40.561Z,33.05
2019-01-25T02:42:09.065Z,29.00
2019-01-25T02:44:37.508Z,31.57
2019-01-25T02:47:05.955Z,30.20
2019-01-25T02:49:34.394Z,31.25
2019-01-25T02:52:02.822Z,29.05
2019-01-25T02:54:31.262Z,29.77
2019-01-25T02:56:59.709Z,29.65
2019-01-25T02:59:30.813Z,30.77
2019-01-25T03:01:59.244Z,28.45
2019-01-25T03:04:27.706Z,29.57
2019-01-25T03:06:56.210Z,32.03
2019-01-25T03:09:24.624Z,28.35
2019-01-25T03:11:53.136Z,29.00
2019-01-25T03:14:21.566Z,30.30
2019-01-25T03:16:50.008Z,30.70
2019-01-25T03:19:18.428Z,27.05
2019-01-25T03:21:46.856Z,29.50
2019-01-25T03:24:15.304Z,27.17
2019-01-25T03:26:43.813Z,27.98
2019-01-25T03:29:12.241Z,27.77
2019-01-25T03:31:40.688Z,29.97
2019-01-25T03:34:09.105Z,27.90
2019-01-25T03:36:38.507Z,28.25
2019-01-25T03:39:08.258Z,31.35
2019-01-25T03:41:36.780Z,29.00
2019-01-25T03:44:05.634Z,30.10
2019-01-25T03:46:34.073Z,27.93
2019-01-25T03:49:02.495Z,29.55
2019-01-25T03:51:30.993Z,29.05
2019-01-25T03:53:59.492Z,31.60
2019-01-25T03:56:27.912Z,28.57
2019-01-25T03:58:56.356Z,29.48
2019-01-25T04:01:24.840Z,29.85
2019-01-25T04:03:53.286Z,33.20
2019-01-25T04:06:21.706Z,29.50
2019-01-25T04:08:50.808Z,29.02
2019-01-25T04:11:19.319Z,28.73
2019-01-25T04:13:47.740Z,32.00
2019-01-25T04:16:16.175Z,29.12
2019-01-25T04:18:44.660Z,28.83
2019-01-25T04:21:13.349Z,28.50
2019-01-25T04:23:41.827Z,27.42
2019-01-25T04:26:10.242Z,27.67
2019-01-25T04:28:38.687Z,27.13
2019-01-25T04:31:07.111Z,28.15
2019-01-25T04:33:35.553Z,25.48
2019-01-25T04:36:04.318Z,26.27
2019-01-25T04:38:32.744Z,27.55
2019-01-25T04:41:01.195Z,26.93
2019-01-25T04:43:29.616Z,30.95
2019-01-25T04:45:58.042Z,28.27
2019-01-25T04:48:26.474Z,28.07
2019-01-25T04:50:54.906Z,31.25
2019-01-25T04:53:23.330Z,28.65
2019-01-25T04:55:51.749Z,31.00
2019-01-25T04:58:20.169Z,27.85
2019-01-25T05:00:48.577Z,28.35
2019-01-25T05:03:17.426Z,28.02
2019-01-25T05:05:45.976Z,29.70
2019-01-25T05:08:16.578Z,27.77
2019-01-25T05:10:44.994Z,29.35
2019-01-25T05:13:13.505Z,29.87
2019-01-25T05:15:41.909Z,29.63
2019-01-25T05:18:10.578Z,29.02
2019-01-25T05:20:39.175Z,28.85
2019-01-25T05:23:08.152Z,33.30
2019-01-25T05:25:36.556Z,30.85
2019-01-25T05:28:13.718Z,30.62
2019-01-25T05:30:54.257Z,31.68
2019-01-25T05:33:22.705Z,32.80
2019-01-25T05:35:51.276Z,35.45
2019-01-25T05:38:19.703Z,30.97
2019-01-25T05:40:48.133Z,31.52
2019-01-25T05:43:16.557Z,30.17
2019-01-25T05:45:46.061Z,32.98
2019-01-25T05:48:14.649Z,32.70
2019-01-25T05:50:44.016Z,32.67
2019-01-25T05:53:12.526Z,32.00
2019-01-25T05:55:40.932Z,45.73
2019-01-25T05:58:10.319Z,47.08
2019-01-25T06:00:42.909Z,36.40
2019-01-25T06:03:13.319Z,33.38
2019-01-25T06:05:42.179Z,35.28
2019-01-25T06:08:32.892Z,35.30
2019-01-25T06:11:03.241Z,32.73
2019-01-25T06:13:31.946Z,33.45
2019-01-25T06:16:00.512Z,34.95
2019-01-25T06:18:28.942Z,33.20
2019-01-25T06:20:58.588Z,34.58
2019-01-25T06:23:27.084Z,34.13
2019-01-25T06:25:57.164Z,32.17
2019-01-25T06:28:25.726Z,34.13
2019-01-25T06:30:54.390Z,33.28
2019-01-25T06:33:23.171Z,33.33
2019-01-25T06:35:51.584Z,33.67
2019-01-25T06:38:20.261Z,33.23
2019-01-25T06:40:48.749Z,33.10
2019-01-25T06:43:17.379Z,35.65
2019-01-25T06:45:45.784Z,35.43
2019-01-25T06:48:14.300Z,35.65
2019-01-25T06:50:42.789Z,36.88
2019-01-25T06:53:11.343Z,33.88
2019-01-25T06:55:39.783Z,35.15
2019-01-25T06:58:15.924Z,32.88
2019-01-25T07:00:54.956Z,31.95
2019-01-25T07:03:23.372Z,37.08
2019-01-25T07:05:51.804Z,35.17
2019-01-25T07:08:20.234Z,35.70
2019-01-25T07:10:48.665Z,35.25
2019-01-25T07:13:17.080Z,34.15
2019-01-25T07:15:45.523Z,33.88
2019-01-25T07:18:14.023Z,35.15
2019-01-25T07:20:42.460Z,33.95
2019-01-25T08:42:16.414Z,37.63
2019-01-25T08:44:44.825Z,35.25
2019-01-25T08:47:13.268Z,35.20
2019-01-25T08:49:41.712Z,32.60
2019-01-25T08:52:10.825Z,34.58
2019-01-25T08:54:39.505Z,32.40
2019-01-25T08:57:07.949Z,34.23
2019-01-25T08:59:36.946Z,33.08
2019-01-25T09:02:05.597Z,34.85
2019-01-25T09:04:34.017Z,34.87
2019-01-25T09:07:02.537Z,34.33
2019-01-25T09:09:30.966Z,34.08
2019-01-25T09:11:59.428Z,33.63
2019-01-25T09:14:27.874Z,31.90
2019-01-25T09:16:56.308Z,31.75
2019-01-25T09:19:24.736Z,37.70
2019-01-25T09:21:53.162Z,36.00
2019-01-25T09:24:21.617Z,35.10
2019-01-25T09:26:50.059Z,35.07
2019-01-25T09:29:18.510Z,33.17
2019-01-25T09:31:46.946Z,33.05
2019-01-25T09:34:15.433Z,34.48
2019-01-25T09:36:43.882Z,34.95
2019-01-25T09:39:12.296Z,36.25
2019-01-25T09:41:40.733Z,33.20
2019-01-25T09:44:09.167Z,31.97
2019-01-25T09:46:37.616Z,33.97
2019-01-25T09:49:06.172Z,32.55
2019-01-25T09:51:34.608Z,29.60
2019-01-25T09:54:03.047Z,33.28
2019-01-25T09:56:31.477Z,31.60
2019-01-25T09:58:59.926Z,31.27
2019-01-25T10:01:28.410Z,31.33
2019-01-25T10:03:56.840Z,29.90
2019-01-25T10:06:25.269Z,31.43
2019-01-25T10:08:53.685Z,30.30
2019-01-25T10:11:22.475Z,34.50
2019-01-25T10:13:50.901Z,31.03
2019-01-25T10:16:19.312Z,31.00
2019-01-25T10:18:47.726Z,30.87
2019-01-25T10:21:16.171Z,27.50
2019-01-25T10:23:44.586Z,29.80
2019-01-25T10:26:12.989Z,27.57
2019-01-25T10:28:41.482Z,29.07
2019-01-25T10:31:10.320Z,28.10
2019-01-25T10:33:38.919Z,30.87
2019-01-25T10:36:07.393Z,29.70
2019-01-25T10:38:35.899Z,30.50
2019-01-25T10:41:04.750Z,28.60
2019-01-25T10:43:33.168Z,28.00
2019-01-25T10:46:01.598Z,28.90
2019-01-25T10:48:30.016Z,27.90
2019-01-25T10:50:58.438Z,28.20
2019-01-25T10:53:26.860Z,30.20
2019-01-25T10:55:55.296Z,36.10
2019-01-25T10:58:23.733Z,30.10
2019-01-25T11:00:52.146Z,29.47
2019-01-25T11:03:20.570Z,26.53
2019-01-25T11:05:48.972Z,30.57
2019-01-25T11:08:17.396Z,28.40
2019-01-25T11:10:45.814Z,28.40
2019-01-25T11:13:15.167Z,27.33
2019-01-25T11:15:43.608Z,36.93
2019-01-25T11:18:12.042Z,28.67
2019-01-25T11:20:40.448Z,26.10
2019-01-25T11:23:08.886Z,27.27
2019-01-25T11:25:40.245Z,25.67
2019-01-25T11:28:08.664Z,27.47
2019-01-25T11:30:37.095Z,24.93
2019-01-25T11:33:05.584Z,25.10
2019-01-25T11:35:34.060Z,27.73
2019-01-25T11:38:02.538Z,23.90
2019-01-25T11:40:42.248Z,24.57
2019-01-25T11:43:10.664Z,25.20
2019-01-25T11:45:39.144Z,27.17
2019-01-25T11:48:10.683Z,25.13
2019-01-25T11:50:39.104Z,26.90
2019-01-25T11:53:07.523Z,25.73
2019-01-25T11:55:35.934Z,25.20
2019-01-25T11:58:04.628Z,25.37
2019-01-25T12:00:34.148Z,26.80
2019-01-25T12:03:02.572Z,26.27
2019-01-25T12:05:31.003Z,26.23
2019-01-25T12:07:59.717Z,25.60
2019-01-25T12:10:33.820Z,26.70
2019-01-25T12:13:02.286Z,29.97
2019-01-25T12:15:30.698Z,27.63
2019-01-25T12:17:59.132Z,40.23
2019-01-25T12:20:29.472Z,46.40
2019-01-25T12:22:57.979Z,28.50
2019-01-25T12:25:26.384Z,31.60
2019-01-25T12:27:55.181Z,27.17
2019-01-25T12:30:37.780Z,29.30
2019-01-25T12:33:06.771Z,30.50
2019-01-25T12:35:37.331Z,28.40
2019-01-25T12:38:06.107Z,24.67
2019-01-25T12:40:34.858Z,27.47
2019-01-25T12:43:03.822Z,27.10
2019-01-25T12:45:32.690Z,26.70
2019-01-25T12:48:01.181Z,25.90
2019-01-25T12:50:38.399Z,25.37
2019-01-25T12:53:08.882Z,23.83
2019-01-25T12:55:38.672Z,26.70
2019-01-25T12:58:07.202Z,21.97
2019-01-25T13:00:35.952Z,20.80
2019-01-25T13:03:05.412Z,34.63
2019-01-25T13:05:33.824Z,19.27
2019-01-25T13:08:02.275Z,21.80
2019-01-25T13:10:30.688Z,21.33
2019-01-25T13:12:59.211Z,20.00
2019-01-25T13:15:27.719Z,22.30
2019-01-25T13:17:56.177Z,21.70
2019-01-25T13:20:29.972Z,21.70
2019-01-25T13:22:58.454Z,22.37
2019-01-25T13:25:26.903Z,21.70
2019-01-25T13:27:55.461Z,19.90
2019-01-25T13:30:31.821Z,20.20
2019-01-25T13:33:01.017Z,20.63
2019-01-25T13:35:29.653Z,20.10
2019-01-25T13:37:58.214Z,21.47
2019-01-25T13:40:28.180Z,39.23
2019-01-25T13:42:57.551Z,39.00
2019-01-25T13:45:26.045Z,22.23
2019-01-25T13:47:54.816Z,21.57
2019-01-25T13:50:28.880Z,21.10
2019-01-25T13:52:57.369Z,22.77
2019-01-25T13:55:26.761Z,27.33
2019-01-25T13:57:55.263Z,19.00
2019-01-25T14:00:47.244Z,25.80
2019-01-25T14:03:15.682Z,21.90
2019-01-25T14:05:46.058Z,18.37
2019-01-25T14:08:14.537Z,20.80
2019-01-25T14:10:42.972Z,20.27
2019-01-25T14:13:11.458Z,19.77
2019-01-25T14:15:40.971Z,23.33
2019-01-25T14:18:09.398Z,21.07
2019-01-25T14:20:37.838Z,20.40
2019-01-25T14:23:06.261Z,21.80
2019-01-25T14:25:34.692Z,22.07
2019-01-25T14:28:03.096Z,21.87
2019-01-25T14:30:41.174Z,23.00
2019-01-25T14:33:09.721Z,20.53
2019-01-25T14:35:38.228Z,20.80
2019-01-25T14:38:07.481Z,20.83
2019-01-25T14:40:36.066Z,19.33
2019-01-25T14:43:04.494Z,23.40
2019-01-25T14:45:32.923Z,22.20
2019-01-25T14:48:01.328Z,21.23
2019-01-25T14:50:31.870Z,19.23
2019-01-25T14:53:00.637Z,18.40
2019-01-25T14:55:29.167Z,19.37
2019-01-25T14:57:57.712Z,19.50
2019-01-25T15:00:26.232Z,18.90
2019-01-25T15:02:54.760Z,21.13
2019-01-25T15:05:23.269Z,20.67
2019-01-25T15:07:51.704Z,18.50
2019-01-25T15:10:22.642Z,19.33
2019-01-25T15:12:52.121Z,19.97
2019-01-25T15:15:20.613Z,17.83
2019-01-25T15:17:49.292Z,17.30
2019-01-25T15:20:20.624Z,17.40
2019-01-25T15:22:49.054Z,19.27
2019-01-25T15:25:17.601Z,18.80
2019-01-25T15:27:46.034Z,42.00
2019-01-25T15:30:20.215Z,20.70
2019-01-25T15:32:48.890Z,19.87
2019-01-25T15:35:19.462Z,24.70
2019-01-25T15:37:47.945Z,22.73
2019-01-25T15:40:18.566Z,20.17
2019-01-25T15:42:47.141Z,25.77
2019-01-25T15:45:17.625Z,22.23
2019-01-25T15:47:46.210Z,20.43
2019-01-25T15:50:23.779Z,21.13
2019-01-25T15:52:52.188Z,20.47
2019-01-25T15:55:20.971Z,19.83
2019-01-25T15:57:49.463Z,21.30
2019-01-25T16:00:20.612Z,21.40
2019-01-25T16:02:49.383Z,20.57
2019-01-25T16:05:20.216Z,20.50
2019-01-25T16:07:49.937Z,20.80
2019-01-25T16:10:20.530Z,20.37
2019-01-25T16:12:49.472Z,19.50
2019-01-25T16:15:20.716Z,24.13
2019-01-25T16:17:49.661Z,22.10
2019-01-25T16:20:19.142Z,21.37
2019-01-25T16:22:48.893Z,21.53
2019-01-25T16:25:23.155Z,20.83
2019-01-25T16:27:51.556Z,20.27
2019-01-25T16:30:23.133Z,20.70
2019-01-25T16:32:51.540Z,21.40
2019-01-25T16:35:19.960Z,21.63
2019-01-25T16:37:49.723Z,22.07
2019-01-25T16:40:21.242Z,20.87
2019-01-25T16:42:49.734Z,20.10
2019-01-25T16:45:20.803Z,23.47
2019-01-25T16:47:49.571Z,23.40
2019-01-25T16:50:23.567Z,22.57
2019-01-25T16:52:48.261Z,22.53
2019-01-25T16:55:16.950Z,21.47
2019-01-25T16:57:45.432Z,22.87
2019-01-25T17:00:22.822Z,19.10
2019-01-25T17:02:51.229Z,20.50
2019-01-25T17:05:20.012Z,19.03
2019-01-25T17:07:48.432Z,19.50
2019-01-25T17:10:17.300Z,19.57
2019-01-25T17:12:45.790Z,19.73
2019-01-25T17:15:15.971Z,20.73
2019-01-25T17:17:44.518Z,18.50
2019-01-25T17:20:24.231Z,19.33
2019-01-25T17:22:52.636Z,18.17
2019-01-25T17:25:21.503Z,17.67
2019-01-25T17:27:50.067Z,16.40
2019-01-25T17:30:21.567Z,16.50
2019-01-25T17:32:50.525Z,17.37
2019-01-25T17:35:19.228Z,17.00
2019-01-25T17:37:47.640Z,17.77
2019-01-25T17:40:18.781Z,16.27
2019-01-25T17:42:47.331Z,17.33
2019-01-25T17:45:16.383Z,17.13
2019-01-25T17:47:45.235Z,14.73
2019-01-25T17:50:15.199Z,15.30
2019-01-25T17:52:43.647Z,14.87
2019-01-25T17:55:14.348Z,16.60
2019-01-25T17:57:42.916Z,15.90
2019-01-25T18:00:28.179Z,17.17
2019-01-25T18:02:56.612Z,14.97
2019-01-25T18:05:25.100Z,18.23
2019-01-25T18:07:54.482Z,19.43
2019-01-25T18:10:24.772Z,57.17
2019-01-25T18:12:53.280Z,26.97
2019-01-25T18:15:21.855Z,25.60
2019-01-25T18:17:50.358Z,21.73
2019-01-25T18:20:21.496Z,23.23
2019-01-25T18:22:49.921Z,17.43
2019-01-25T18:25:24.564Z,15.63
2019-01-25T18:27:56.437Z,16.30
2019-01-25T18:30:40.090Z,14.30
2019-01-25T18:33:08.936Z,12.10
2019-01-25T18:35:37.345Z,12.03
2019-01-25T18:38:06.054Z,13.57
2019-01-25T18:40:34.468Z,10.13
2019-01-25T18:43:02.910Z,12.60
2019-01-25T18:45:31.316Z,10.13
2019-01-25T18:47:59.744Z,12.00
2019-01-25T18:50:28.154Z,12.33
2019-01-25T18:52:56.653Z,12.73
2019-01-25T18:55:26.045Z,12.50
2019-01-25T18:57:54.468Z,10.57
2019-01-25T19:00:23.467Z,11.37
2019-01-25T19:02:51.901Z,24.30
2019-01-25T19:05:20.382Z,14.70
2019-01-25T19:07:48.868Z,14.37
2019-01-25T19:10:25.987Z,11.87
2019-01-25T19:12:54.491Z,14.97
2019-01-25T19:15:28.615Z,11.27
2019-01-25T19:17:57.116Z,15.43
2019-01-25T19:20:25.604Z,13.30
2019-01-25T19:22:54.107Z,12.03
2019-01-25T19:25:22.585Z,13.97
2019-01-25T19:27:51.026Z,19.43
2019-01-25T19:30:27.961Z,16.00
2019-01-25T19:32:57.390Z,13.00
2019-01-25T19:35:25.870Z,13.23
2019-01-25T19:37:54.378Z,14.50
2019-01-25T19:40:31.835Z,12.50
2019-01-25T19:43:00.344Z,17.03
2019-01-25T19:45:28.836Z,14.50
2019-01-25T19:47:57.400Z,15.87
2019-01-25T19:50:27.377Z,15.77
2019-01-25T19:52:55.884Z,12.73
2019-01-25T19:55:27.045Z,12.03
2019-01-25T19:57:55.847Z,12.03
2019-01-25T20:00:27.369Z,11.40
2019-01-25T20:02:55.908Z,10.97
2019-01-25T20:05:26.649Z,11.50
2019-01-25T20:07:55.140Z,14.60
2019-01-25T20:10:23.772Z,14.73
2019-01-25T20:12:52.537Z,12.93
2019-01-25T20:15:23.795Z,10.10
2019-01-25T20:17:52.366Z,9.30
2019-01-25T20:20:23.088Z,9.27
2019-01-25T20:22:51.579Z,11.17
2019-01-25T20:25:20.120Z,11.10
2019-01-25T20:27:48.716Z,12.97
2019-01-25T20:30:20.083Z,12.83
2019-01-25T20:32:48.512Z,20.40
2019-01-25T20:35:19.383Z,22.50
2019-01-25T20:37:47.817Z,19.60
2019-01-25T20:40:17.270Z,11.00
2019-01-25T20:42:46.907Z,13.03
2019-01-25T20:45:30.233Z,13.43
2019-01-25T20:47:58.661Z,14.50
2019-01-25T20:50:28.823Z,14.93
2019-01-25T20:52:57.514Z,14.17
2019-01-25T20:55:26.358Z,18.80
2019-01-25T20:57:55.740Z,18.63
2019-01-25T21:00:29.858Z,17.10
2019-01-25T21:02:58.480Z,14.33
2019-01-25T21:05:26.967Z,15.23
2019-01-25T21:07:55.661Z,11.90
2019-01-25T21:10:25.531Z,22.20
2019-01-25T21:12:54.414Z,10.23
2019-01-25T21:15:34.763Z,11.57
2019-01-25T21:17:58.068Z,9.70
2019-01-25T21:20:34.940Z,13.10
2019-01-25T21:23:04.001Z,13.47
2019-01-25T21:25:32.563Z,13.30
2019-01-25T21:28:00.999Z,12.13
2019-01-25T21:30:32.031Z,14.60
2019-01-25T21:33:01.547Z,11.30
2019-01-25T21:35:30.976Z,12.57
2019-01-25T21:37:59.501Z,10.23
2019-01-25T21:40:29.849Z,9.60
2019-01-25T21:42:58.408Z,9.30
2019-01-25T21:45:29.278Z,9.80
2019-01-25T21:47:57.779Z,9.27
2019-01-25T21:50:29.770Z,9.70
2019-01-25T21:52:58.330Z,8.20
2019-01-25T21:55:26.747Z,8.73
2019-01-25T21:57:55.607Z,8.10
2019-01-25T22:00:26.527Z,11.13
2019-01-25T22:02:55.021Z,10.37
2019-01-25T22:05:23.570Z,8.70
2019-01-25T22:07:52.070Z,9.40
2019-01-25T22:10:23.580Z,9.53
2019-01-25T22:12:51.994Z,8.67
2019-01-25T22:15:20.486Z,9.80
2019-01-25T22:17:49.236Z,11.07
2019-01-25T22:20:20.129Z,10.20
2019-01-25T22:22:48.520Z,9.13
2019-01-25T22:25:17.020Z,10.83
2019-01-25T22:27:47.069Z,10.60
2019-01-25T22:30:20.559Z,9.27
2019-01-25T22:32:49.050Z,9.20
2019-01-25T22:35:17.640Z,9.87
2019-01-25T22:37:46.044Z,14.93
2019-01-25T22:40:25.705Z,9.63
2019-01-25T22:42:54.176Z,8.60
2019-01-25T22:45:27.236Z,9.20
2019-01-25T22:47:56.599Z,10.07
2019-01-25T22:50:27.654Z,8.77
2019-01-25T22:52:56.130Z,10.27
2019-01-25T22:55:45.435Z,8.60
2019-01-25T22:58:13.858Z,8.10
2019-01-25T23:00:58.530Z,9.37
2019-01-25T23:03:35.919Z,9.80
2019-01-25T23:06:33.981Z,8.30
2019-01-25T23:09:08.415Z,8.33
2019-01-25T23:11:36.897Z,11.10
2019-01-25T23:14:06.360Z,13.50
2019-01-25T23:16:34.782Z,19.97
2019-01-25T23:19:03.216Z,13.97
2019-01-25T23:21:31.628Z,14.57
2019-01-25T23:24:00.075Z,12.93
2019-01-25T23:26:28.476Z,11.37
2019-01-25T23:28:56.924Z,8.23
2019-01-25T23:31:25.512Z,9.00
2019-01-25T23:33:53.939Z,7.70
2019-01-25T23:36:22.356Z,9.70
2019-01-25T23:38:50.781Z,7.90
2019-01-25T23:41:19.266Z,8.40
2019-01-25T23:43:47.703Z,8.50
2019-01-25T23:46:16.105Z,9.47
2019-01-25T23:48:44.536Z,12.47
2019-01-25T23:51:12.946Z,12.10
2019-01-25T23:53:41.360Z,14.50
2019-01-25T23:56:09.798Z,13.03
2019-01-25T23:58:38.226Z,17.97
